Time;durP1;ratioP1;P1;durP2;ratioP2;P2;SDS_P1;SDS_P2;PMS_P1;PMS_P2;Temp;Humidity;BMP_temperature;BMP_pressure;BME280_temperature;BME280_humidity;BME280_pressure;Samples;Min_cycle;Max_cycle;Signal;HPM_P1;HPM_P2
2021/10/18 00:01:53;;;;;;;;;;;;;;;7.78;93.05;100535.53;1648050;86;20183;-80
2021/10/18 00:04:19;;;;;;;;;;;;;;;7.85;92.90;100531.92;1618676;86;20160;-80
2021/10/18 00:06:44;;;;;;;;;;;;;;;7.84;92.78;100536.33;1627536;87;20140;-80
2021/10/18 00:09:10;;;;;;;;;;;;;;;7.86;92.63;100534.42;1632347;87;21114;-80
2021/10/18 00:11:36;;;;;;;;;;;;;;;7.80;92.79;100538.03;1629925;87;20206;-80
2021/10/18 00:14:05;;;;;;;;;;;;;;;7.82;93.14;100531.69;1634373;87;20671;-80
2021/10/18 00:16:31;;;;;;;;;;;;;;;7.84;92.88;100531.56;1644175;86;20291;-80
2021/10/18 00:18:57;;;;;;;;;;;;;;;7.89;92.65;100538.58;1637024;87;20233;-80
2021/10/18 00:21:22;;;;;;;;;;;;;;;7.93;92.42;100537.86;1628670;87;21092;-79
2021/10/18 00:23:48;;;;;;;;;;;;;;;7.98;92.22;100533.85;1630324;87;20144;-79
2021/10/18 00:26:15;;;;;;;;;;;;;;;7.94;92.18;100532.92;1646150;86;20333;-81
2021/10/18 00:28:43;;;;;;;;;;;;;;;7.98;92.22;100523.83;1637417;86;20180;-81
2021/10/18 00:31:08;;;;;;;;;;;;;;;8.00;91.94;100532.41;1629682;86;20183;-80
2021/10/18 00:33:34;;;;;;;;;;;;;;;8.05;91.89;100535.50;1644454;86;21161;-81
2021/10/18 00:36:00;;;;;;;;;;;;;;;8.02;91.70;100535.77;1644411;86;20848;-81
2021/10/18 00:38:27;;;;;;;;;;;;;;;7.99;91.89;100532.91;1643203;86;20208;-80
2021/10/18 00:40:55;;;;;;;;;;;;;;;8.06;91.93;100535.84;1638456;86;20255;-80
2021/10/18 00:43:23;;;;;;;;;;;;;;;8.01;92.04;100541.98;1638097;86;20142;-81
2021/10/18 00:45:50;;;;;;;;;;;;;;;8.00;92.14;100529.78;1633720;87;21159;-80
2021/10/18 00:48:16;;;;;;;;;;;;;;;8.00;92.17;100535.04;1627948;87;20218;-80
2021/10/18 00:50:41;;;;;;;;;;;;;;;8.01;92.46;100535.40;1627901;87;20948;-80
2021/10/18 00:53:09;;;;;;;;;;;;;;;8.07;92.21;100528.30;1627804;87;20731;-80
2021/10/18 00:55:36;;;;;;;;;;;;;;;8.03;92.33;100529.06;1626106;87;20165;-80
2021/10/18 00:58:04;;;;;;;;;;;;;;;8.06;92.49;100528.80;1642886;86;21091;-81
2021/10/18 01:00:31;;;;;;;;;;;;;;;8.15;92.06;100531.11;1640843;86;20184;-81
2021/10/18 01:02:57;;;;;;;;;;;;;;;8.09;92.02;100531.17;1640069;86;20183;-80
2021/10/18 01:05:24;;;;;;;;;;;;;;;8.07;92.15;100534.39;1640711;86;20218;-80
2021/10/18 01:07:52;;;;;;;;;;;;;;;8.09;92.46;100527.22;1641020;86;20208;-80
2021/10/18 01:10:17;;;;;;;;;;;;;;;8.20;91.93;100534.20;1617468;87;21268;-80
2021/10/18 01:12:43;;;;;;;;;;;;;;;8.32;91.48;100537.56;1641329;86;20340;-80
2021/10/18 01:15:09;;;;;;;;;;;;;;;8.41;90.98;100535.94;1641159;86;20306;-80
2021/10/18 01:17:34;;;;;;;;;;;;;;;8.44;90.82;100535.22;1604477;87;21520;-80
2021/10/18 01:20:00;;;;;;;;;;;;;;;8.45;90.69;100537.36;1624832;87;20185;-81
2021/10/18 01:22:28;;;;;;;;;;;;;;;8.40;90.76;100536.89;1641316;86;21172;-81
2021/10/18 01:24:56;;;;;;;;;;;;;;;8.50;90.50;100528.59;1641176;86;20197;-81
2021/10/18 01:27:24;;;;;;;;;;;;;;;8.60;90.17;100536.02;1641971;86;20146;-81
2021/10/18 01:29:50;;;;;;;;;;;;;;;8.67;89.74;100540.75;1641075;86;20232;-81
2021/10/18 01:32:19;;;;;;;;;;;;;;;8.57;90.17;100524.45;1642233;86;20163;-80
2021/10/18 01:34:46;;;;;;;;;;;;;;;8.54;90.62;100531.78;1639834;86;21168;-80
2021/10/18 01:37:13;;;;;;;;;;;;;;;8.52;90.79;100534.55;1642373;86;20370;-80
2021/10/18 01:39:39;;;;;;;;;;;;;;;8.49;91.10;100535.31;1640318;86;20127;-80
2021/10/18 01:42:06;;;;;;;;;;;;;;;8.49;91.27;100532.19;1639962;86;20731;-81
2021/10/18 01:44:33;;;;;;;;;;;;;;;8.52;91.19;100530.60;1640863;86;20186;-80
2021/10/18 01:46:59;;;;;;;;;;;;;;;8.50;91.38;100533.86;1641109;86;21834;-80
2021/10/18 01:49:25;;;;;;;;;;;;;;;8.49;91.51;100533.50;1641237;86;20167;-80
2021/10/18 01:51:50;;;;;;;;;;;;;;;8.51;91.65;100534.69;1642007;86;20411;-82
2021/10/18 01:54:16;;;;;;;;;;;;;;;8.56;91.58;100529.38;1645931;86;20165;-80
2021/10/18 01:56:42;;;;;;;;;;;;;;;8.61;91.42;100532.44;1597152;87;20220;-80
2021/10/18 01:59:07;;;;;;;;;;;;;;;8.67;91.28;100530.22;1643694;86;22284;-80
2021/10/18 02:01:35;;;;;;;;;;;;;;;8.72;91.16;100544.66;1624772;86;20135;-82
2021/10/18 02:04:00;;;;;;;;;;;;;;;8.73;91.14;100540.22;1639266;86;20336;-82
2021/10/18 02:06:26;;;;;;;;;;;;;;;8.75;91.12;100540.45;1647156;86;21477;-80
2021/10/18 02:08:54;;;;;;;;;;;;;;;8.60;91.73;100535.20;1641895;86;20151;-81
2021/10/18 02:11:19;;;;;;;;;;;;;;;8.74;91.30;100548.48;1645849;86;20139;-82
2021/10/18 02:13:45;;;;;;;;;;;;;;;8.69;91.54;100540.16;1614366;86;20161;-82
2021/10/18 02:16:12;;;;;;;;;;;;;;;8.65;91.69;100539.58;1640533;86;20143;-81
2021/10/18 02:18:39;;;;;;;;;;;;;;;8.61;91.93;100539.02;1641004;86;20178;-81
2021/10/18 02:21:05;;;;;;;;;;;;;;;8.57;92.29;100540.23;1643394;86;20220;-80
2021/10/18 02:23:31;;;;;;;;;;;;;;;8.59;92.42;100535.70;1644517;86;21005;-81
2021/10/18 02:25:58;;;;;;;;;;;;;;;8.56;92.63;100529.38;1639449;86;20539;-80
2021/10/18 02:28:24;;;;;;;;;;;;;;;8.54;92.74;100536.56;1649196;86;20223;-81
2021/10/18 02:30:51;;;;;;;;;;;;;;;8.54;93.02;100535.73;1612107;86;20719;-81
2021/10/18 02:33:17;;;;;;;;;;;;;;;8.53;93.10;100528.80;1645383;86;20201;-81
2021/10/18 02:35:42;;;;;;;;;;;;;;;8.46;93.43;100525.88;1644930;86;21114;-80
2021/10/18 02:38:08;;;;;;;;;;;;;;;8.45;93.66;100528.14;1643337;86;20165;-81
2021/10/18 02:40:33;;;;;;;;;;;;;;;8.49;93.57;100530.87;1640535;86;20524;-81
2021/10/18 02:42:59;;;;;;;;;;;;;;;8.48;93.70;100541.53;1635791;86;21090;-80
2021/10/18 02:45:25;;;;;;;;;;;;;;;8.47;93.90;100542.48;1637546;86;20484;-81
2021/10/18 02:47:50;;;;;;;;;;;;;;;8.48;93.87;100534.45;1645665;85;21195;-80
2021/10/18 02:50:16;;;;;;;;;;;;;;;8.49;93.85;100542.72;1641150;86;20152;-81
2021/10/18 02:52:43;;;;;;;;;;;;;;;8.44;94.03;100535.22;1639570;86;20190;-80
2021/10/18 02:55:09;;;;;;;;;;;;;;;8.47;94.16;100539.39;1638121;86;20161;-80
2021/10/18 02:57:34;;;;;;;;;;;;;;;8.44;94.25;100544.92;1622337;86;20224;-80
2021/10/18 03:00:02;;;;;;;;;;;;;;;8.44;94.45;100544.92;1641946;86;21097;-80
2021/10/18 03:02:27;;;;;;;;;;;;;;;8.43;94.62;100540.58;1642618;86;20264;-80
2021/10/18 03:04:53;;;;;;;;;;;;;;;8.44;94.57;100546.23;1641929;86;20468;-80
2021/10/18 03:07:18;;;;;;;;;;;;;;;8.33;95.13;100551.53;1642820;86;20486;-80
2021/10/18 03:09:45;;;;;;;;;;;;;;;8.38;95.11;100550.68;1640057;86;20163;-80
2021/10/18 03:12:13;;;;;;;;;;;;;;;8.34;95.51;100550.58;1623205;86;21307;-80
2021/10/18 03:14:38;;;;;;;;;;;;;;;8.31;95.74;100545.58;1639797;86;20209;-80
2021/10/18 03:17:05;;;;;;;;;;;;;;;8.38;95.61;100552.00;1646431;86;20625;-80
2021/10/18 03:19:31;;;;;;;;;;;;;;;8.34;95.70;100552.72;1637912;86;20208;-80
2021/10/18 03:21:57;;;;;;;;;;;;;;;8.30;96.16;100554.43;1639870;86;20159;-80
2021/10/18 03:24:23;;;;;;;;;;;;;;;8.34;96.09;100549.27;1649175;86;21115;-81
2021/10/18 03:26:51;;;;;;;;;;;;;;;8.35;96.49;100555.71;1642561;86;20197;-81
2021/10/18 03:29:16;;;;;;;;;;;;;;;8.44;96.12;100559.39;1645132;86;20223;-81
2021/10/18 03:31:42;;;;;;;;;;;;;;;8.32;96.41;100566.50;1644671;86;20129;-81
2021/10/18 03:34:08;;;;;;;;;;;;;;;8.25;96.83;100558.31;1636250;86;20193;-81
2021/10/18 03:36:33;;;;;;;;;;;;;;;8.17;97.54;100560.77;1635336;86;21098;-81
2021/10/18 03:39:01;;;;;;;;;;;;;;;8.21;97.53;100560.84;1644866;86;20164;-81
2021/10/18 03:41:26;;;;;;;;;;;;;;;8.13;98.05;100568.55;1615037;86;20164;-81
2021/10/18 03:43:53;;;;;;;;;;;;;;;8.07;98.47;100563.81;1639570;86;20788;-81
2021/10/18 03:46:18;;;;;;;;;;;;;;;8.07;98.66;100567.77;1641788;86;20634;-80
2021/10/18 03:48:44;;;;;;;;;;;;;;;8.00;99.06;100576.66;1637369;86;21030;-82
2021/10/18 03:51:11;;;;;;;;;;;;;;;7.95;99.53;100574.05;1639497;86;20206;-81
2021/10/18 03:53:37;;;;;;;;;;;;;;;7.98;99.57;100573.30;1613434;87;20526;-81
2021/10/18 03:56:06;;;;;;;;;;;;;;;7.98;99.69;100577.25;1629525;86;20340;-81
2021/10/18 03:58:34;;;;;;;;;;;;;;;7.91;100.00;100583.51;1633204;87;20226;-80
2021/10/18 04:01:02;;;;;;;;;;;;;;;7.85;100.00;100585.34;1624372;87;21898;-80
2021/10/18 04:03:30;;;;;;;;;;;;;;;7.83;100.00;100579.37;1629967;86;20133;-81
2021/10/18 04:05:56;;;;;;;;;;;;;;;7.86;100.00;100589.64;1630481;86;20143;-81
2021/10/18 04:08:26;;;;;;;;;;;;;;;7.91;100.00;100583.51;1619002;87;20438;-80
2021/10/18 04:10:51;;;;;;;;;;;;;;;7.89;100.00;100584.12;1614419;87;20145;-81
2021/10/18 04:13:16;;;;;;;;;;;;;;;7.86;100.00;100594.91;1620288;87;21118;-81
2021/10/18 04:15:42;;;;;;;;;;;;;;;7.80;100.00;100594.09;1612980;87;20478;-80
2021/10/18 04:18:08;;;;;;;;;;;;;;;7.78;100.00;100596.48;1617848;87;20196;-80
2021/10/18 04:20:34;;;;;;;;;;;;;;;7.73;100.00;100592.92;1620177;87;20210;-81
2021/10/18 04:23:01;;;;;;;;;;;;;;;7.73;100.00;100598.19;1614947;87;20189;-81
2021/10/18 04:25:28;;;;;;;;;;;;;;;7.73;100.00;100591.61;1616020;87;21099;-80
2021/10/18 04:27:53;;;;;;;;;;;;;;;7.65;100.00;100597.50;1620190;87;20201;-81
2021/10/18 04:30:19;;;;;;;;;;;;;;;7.64;100.00;100601.56;1623638;87;20152;-79
2021/10/18 04:32:46;;;;;;;;;;;;;;;7.68;100.00;100612.19;1618350;87;20709;-80
2021/10/18 04:35:13;;;;;;;;;;;;;;;7.68;100.00;100604.31;1619053;87;20555;-80
2021/10/18 04:37:39;;;;;;;;;;;;;;;7.66;100.00;100612.78;1619651;87;21039;-79
2021/10/18 04:40:05;;;;;;;;;;;;;;;7.66;100.00;100621.98;1618171;87;21300;-80
2021/10/18 04:42:33;;;;;;;;;;;;;;;7.62;100.00;100625.34;1618250;87;20186;-80
2021/10/18 04:45:01;;;;;;;;;;;;;;;7.70;100.00;100621.60;1617322;87;21277;-80
2021/10/18 04:47:28;;;;;;;;;;;;;;;7.73;100.00;100621.84;1617444;87;20281;-78
2021/10/18 04:49:54;;;;;;;;;;;;;;;7.77;100.00;100621.95;1617318;87;21261;-82
2021/10/18 04:52:20;;;;;;;;;;;;;;;7.74;100.00;100624.84;1591519;87;20220;-79
2021/10/18 04:54:47;;;;;;;;;;;;;;;7.72;100.00;100626.27;1616846;87;20171;-77
2021/10/18 04:57:13;;;;;;;;;;;;;;;7.72;100.00;100624.11;1621343;87;20190;-78
2021/10/18 04:59:42;;;;;;;;;;;;;;;7.76;100.00;100633.42;1618698;87;20245;-78
2021/10/18 05:02:07;;;;;;;;;;;;;;;7.71;100.00;100635.60;1616146;87;20181;-80
2021/10/18 05:04:33;;;;;;;;;;;;;;;7.70;100.00;100632.61;1619511;87;20189;-80
2021/10/18 05:07:01;;;;;;;;;;;;;;;7.70;100.00;100639.18;1622964;87;20201;-82
2021/10/18 05:09:26;;;;;;;;;;;;;;;7.71;100.00;100638.23;1619756;87;20198;-85
2021/10/18 05:11:54;;;;;;;;;;;;;;;7.71;100.00;100639.55;1619775;87;20148;-80
2021/10/18 05:14:19;;;;;;;;;;;;;;;7.75;100.00;100644.88;1623965;87;21944;-82
2021/10/18 05:16:45;;;;;;;;;;;;;;;7.73;100.00;100646.81;1621772;87;20387;-84
2021/10/18 05:19:12;;;;;;;;;;;;;;;7.76;100.00;100647.88;1621519;87;20232;-81
2021/10/18 05:21:38;;;;;;;;;;;;;;;7.81;100.00;100650.95;1602987;87;20324;-82
2021/10/18 05:24:04;;;;;;;;;;;;;;;7.89;100.00;100656.91;1619578;87;21267;-80
2021/10/18 05:26:32;;;;;;;;;;;;;;;7.91;100.00;100655.83;1622222;87;21096;-81
2021/10/18 05:28:57;;;;;;;;;;;;;;;8.01;100.00;100664.27;1617690;87;20185;-78
2021/10/18 05:31:24;;;;;;;;;;;;;;;8.10;100.00;100662.20;1615665;87;20420;-80
2021/10/18 05:33:52;;;;;;;;;;;;;;;8.11;100.00;100673.08;1617322;87;20937;-79
2021/10/18 05:36:17;;;;;;;;;;;;;;;8.14;100.00;100662.30;1616272;87;20198;-78
2021/10/18 05:38:43;;;;;;;;;;;;;;;8.19;100.00;100673.27;1617876;87;21170;-81
2021/10/18 05:41:10;;;;;;;;;;;;;;;8.13;100.00;100667.70;1621104;87;20189;-82
2021/10/18 05:43:39;;;;;;;;;;;;;;;8.12;100.00;100672.59;1613176;87;20193;-81
2021/10/18 05:46:05;;;;;;;;;;;;;;;8.06;100.00;100679.18;1619056;87;20156;-82
2021/10/18 05:48:32;;;;;;;;;;;;;;;7.98;100.00;100678.98;1615780;87;20263;-82
2021/10/18 05:50:59;;;;;;;;;;;;;;;7.96;100.00;100684.37;1618413;87;21965;-87
2021/10/18 05:53:24;;;;;;;;;;;;;;;7.91;100.00;100687.38;1615564;87;20181;-84
2021/10/18 05:55:52;;;;;;;;;;;;;;;7.90;100.00;100687.02;1617718;87;20200;-84
2021/10/18 05:58:20;;;;;;;;;;;;;;;7.89;100.00;100685.38;1599205;87;20157;-84
2021/10/18 06:00:48;;;;;;;;;;;;;;;7.95;100.00;100691.08;1622859;87;20249;-84
2021/10/18 06:03:14;;;;;;;;;;;;;;;7.88;100.00;100695.52;1621899;87;22028;-84
2021/10/18 06:05:43;;;;;;;;;;;;;;;7.94;100.00;100695.97;1625040;87;20186;-85
2021/10/18 06:08:10;;;;;;;;;;;;;;;7.93;100.00;100698.27;1615723;87;20153;-84
2021/10/18 06:10:37;;;;;;;;;;;;;;;7.91;100.00;100699.22;1624467;87;20184;-87
2021/10/18 06:13:03;;;;;;;;;;;;;;;7.87;100.00;100705.67;1623469;87;20178;-80
2021/10/18 06:15:31;;;;;;;;;;;;;;;7.89;100.00;100705.09;1621474;87;21921;-81
2021/10/18 06:18:11;;;;;;;;;;;;;;;7.89;100.00;100710.34;1620665;87;20119;-83
2021/10/18 06:20:39;;;;;;;;;;;;;;;7.84;100.00;100711.67;1622695;87;20092;-80
2021/10/18 06:23:04;;;;;;;;;;;;;;;7.84;100.00;100711.18;1623451;87;20117;-81
2021/10/18 06:25:30;;;;;;;;;;;;;;;7.87;100.00;100714.87;1621813;87;20113;-78
2021/10/18 06:27:56;;;;;;;;;;;;;;;7.90;100.00;100725.15;1630569;87;21019;-79
2021/10/18 06:30:23;;;;;;;;;;;;;;;8.02;100.00;100721.19;1621710;87;20111;-80
2021/10/18 06:32:50;;;;;;;;;;;;;;;8.10;100.00;100721.38;1622278;87;20145;-81
2021/10/18 06:35:17;;;;;;;;;;;;;;;8.13;100.00;100727.70;1618633;87;20249;-80
2021/10/18 06:37:42;;;;;;;;;;;;;;;8.11;100.00;100728.33;1622596;87;20235;-81
2021/10/18 06:40:09;;;;;;;;;;;;;;;8.07;100.00;100734.30;1619310;87;21074;-80
2021/10/18 06:42:40;;;;;;;;;;;;;;;8.12;100.00;100737.86;1621522;87;20150;-81
2021/10/18 06:45:08;;;;;;;;;;;;;;;8.22;100.00;100742.73;1620857;87;20137;-79
2021/10/18 06:47:35;;;;;;;;;;;;;;;8.26;100.00;100745.48;1616249;87;20217;-82
2021/10/18 06:50:01;;;;;;;;;;;;;;;8.34;100.00;100752.71;1618387;87;20217;-83
2021/10/18 06:52:32;;;;;;;;;;;;;;;8.31;100.00;100745.07;1618426;87;21920;-81
2021/10/18 06:54:59;;;;;;;;;;;;;;;8.41;100.00;100758.33;1614840;87;20462;-81
2021/10/18 06:57:26;;;;;;;;;;;;;;;8.46;100.00;100754.85;1592087;89;20205;-78
2021/10/18 06:59:58;;;;;;;;;;;;;;;8.47;100.00;100751.27;1613225;87;20211;-81
2021/10/18 07:02:25;;;;;;;;;;;;;;;8.55;100.00;100759.35;1618316;87;20214;-81
2021/10/18 07:04:52;;;;;;;;;;;;;;;8.58;100.00;100766.17;1617783;87;21118;-81
2021/10/18 07:07:18;;;;;;;;;;;;;;;8.67;100.00;100764.55;1617959;87;20162;-80
2021/10/18 07:09:45;;;;;;;;;;;;;;;8.71;100.00;100763.34;1618562;87;20189;-81
2021/10/18 07:12:11;;;;;;;;;;;;;;;8.66;100.00;100763.72;1591098;89;20182;-80
2021/10/18 07:14:37;;;;;;;;;;;;;;;8.80;100.00;100759.93;1613656;89;20203;-80
2021/10/18 07:17:02;;;;;;;;;;;;;;;8.80;100.00;100755.98;1614745;87;21112;-81
2021/10/18 07:19:28;;;;;;;;;;;;;;;8.97;100.00;100759.33;1612813;89;20197;-81
2021/10/18 07:21:54;;;;;;;;;;;;;;;9.13;100.00;100765.92;1613292;88;20173;-80
2021/10/18 07:24:20;;;;;;;;;;;;;;;9.28;100.00;100759.33;1613702;89;20824;-80
2021/10/18 07:26:49;;;;;;;;;;;;;;;9.35;100.00;100766.22;1613260;89;20275;-81
2021/10/18 07:29:17;;;;;;;;;;;;;;;9.41;100.00;100771.45;1613356;89;20165;-80
2021/10/18 07:31:47;;;;;;;;;;;;;;;9.33;100.00;100772.94;1613158;89;20202;-80
2021/10/18 07:34:15;;;;;;;;;;;;;;;9.52;100.00;100785.84;1613380;89;20185;-80
2021/10/18 07:36:49;;;;;;;;;;;;;;;9.43;100.00;100793.23;1613049;89;20150;-80
2021/10/18 07:39:15;;;;;;;;;;;;;;;9.42;100.00;100787.62;1612202;89;20169;-80
2021/10/18 07:41:48;;;;;;;;;;;;;;;9.47;100.00;100794.15;1613167;88;21106;-82
2021/10/18 07:44:15;;;;;;;;;;;;;;;9.52;100.00;100799.02;1613378;87;20240;-81
2021/10/18 07:46:45;;;;;;;;;;;;;;;9.63;100.00;100798.95;1613603;89;20191;-80
2021/10/18 07:49:12;;;;;;;;;;;;;;;9.47;100.00;100802.55;1612943;89;20152;-82
2021/10/18 07:51:37;;;;;;;;;;;;;;;9.50;100.00;100802.29;1592764;89;20181;-81
2021/10/18 07:54:04;;;;;;;;;;;;;;;9.44;100.00;100794.91;1613332;89;21156;-80
2021/10/18 07:56:31;;;;;;;;;;;;;;;9.48;100.00;100791.05;1608002;87;20239;-79
2021/10/18 07:58:57;;;;;;;;;;;;;;;9.42;100.00;100791.58;1612298;87;20473;-81
2021/10/18 08:01:23;;;;;;;;;;;;;;;9.37;100.00;100795.08;1588640;89;20270;-80
2021/10/18 08:03:49;;;;;;;;;;;;;;;9.32;100.00;100793.69;1609938;87;20132;-80
2021/10/18 08:06:15;;;;;;;;;;;;;;;9.23;100.00;100799.75;1610004;87;21142;-80
2021/10/18 08:08:52;;;;;;;;;;;;;;;9.26;100.00;100802.13;1612571;87;20240;-81
2021/10/18 08:11:18;;;;;;;;;;;;;;;9.40;100.00;100793.50;1610278;88;20186;-80
2021/10/18 08:13:44;;;;;;;;;;;;;;;9.51;100.00;100794.74;1607180;88;20229;-79
2021/10/18 08:16:12;;;;;;;;;;;;;;;9.51;100.00;100796.88;1609355;87;20234;-80
2021/10/18 08:18:38;;;;;;;;;;;;;;;9.51;100.00;100799.52;1615144;87;21893;-80
2021/10/18 08:21:08;;;;;;;;;;;;;;;9.61;100.00;100821.95;1608762;88;20217;-80
2021/10/18 08:23:36;;;;;;;;;;;;;;;9.65;100.00;100815.95;1608760;88;20205;-80
2021/10/18 08:26:02;;;;;;;;;;;;;;;9.68;100.00;100831.02;1605846;89;20186;-81
2021/10/18 08:28:30;;;;;;;;;;;;;;;9.70;100.00;100829.07;1606151;88;20630;-81
2021/10/18 08:30:58;;;;;;;;;;;;;;;9.67;100.00;100836.42;1604404;88;21171;-82
2021/10/18 08:33:27;;;;;;;;;;;;;;;9.79;100.00;100825.27;1606984;87;20223;-81
2021/10/18 08:35:54;;;;;;;;;;;;;;;9.85;99.52;100848.47;1606638;89;20209;-80
2021/10/18 08:41:17;;;;;;;;;;;;;;;10.02;99.22;100821.46;1611106;88;20166;-79
2021/10/18 08:46:09;;;;;;;;;;;;;;;10.22;98.18;100824.11;1611352;88;20549;-79
2021/10/18 08:48:37;;;;;;;;;;;;;;;10.29;97.26;100817.33;1588324;89;20182;-80
2021/10/18 08:51:06;;;;;;;;;;;;;;;10.33;96.75;100820.08;1605810;89;20229;-79
2021/10/18 08:53:31;;;;;;;;;;;;;;;10.44;96.44;100827.50;1605027;89;20192;-79
2021/10/18 08:55:58;;;;;;;;;;;;;;;10.46;96.09;100830.86;1606164;87;21002;-80
2021/10/18 08:58:24;;;;;;;;;;;;;;;10.54;95.80;100829.66;1605777;89;20526;-81
2021/10/18 09:00:53;;;;;;;;;;;;;;;10.65;95.71;100820.27;1606380;89;20150;-80
2021/10/18 09:03:25;;;;;;;;;;;;;;;10.74;94.79;100826.53;1607383;87;20146;-79
2021/10/18 09:06:10;;;;;;;;;;;;;;;10.70;94.84;100835.70;1614682;88;20240;-82
2021/10/18 09:08:52;;;;;;;;;;;;;;;10.64;94.82;100831.80;1613243;87;21176;-79
2021/10/18 09:11:28;;;;;;;;;;;;;;;10.64;94.74;100829.16;1590827;87;20180;-80
2021/10/18 09:13:57;;;;;;;;;;;;;;;10.72;94.51;100834.59;1609919;88;20163;-81
2021/10/18 09:16:31;;;;;;;;;;;;;;;10.68;94.45;100817.34;1606239;88;20190;-81
2021/10/18 09:19:24;;;;;;;;;;;;;;;10.62;94.51;100831.12;1605690;89;20368;-82
2021/10/18 09:21:55;;;;;;;;;;;;;;;10.65;93.95;100844.05;1605343;88;20230;-81
2021/10/18 09:24:36;;;;;;;;;;;;;;;10.63;93.55;100836.76;1604792;89;20174;-80
2021/10/18 09:27:08;;;;;;;;;;;;;;;10.62;94.11;100839.04;1604683;89;20242;-79
2021/10/18 09:29:45;;;;;;;;;;;;;;;10.70;93.81;100836.52;1605532;89;21182;-82
2021/10/18 09:32:15;;;;;;;;;;;;;;;10.78;93.67;100843.75;1606585;87;20155;-79
2021/10/18 09:34:42;;;;;;;;;;;;;;;10.87;93.36;100839.44;1604594;88;21002;-80
2021/10/18 09:37:09;;;;;;;;;;;;;;;10.96;93.05;100830.66;1613948;87;20137;-79
2021/10/18 09:39:37;;;;;;;;;;;;;;;10.98;92.77;100838.45;1612203;87;20161;-81
2021/10/18 09:42:05;;;;;;;;;;;;;;;10.94;91.90;100833.45;1587859;87;20382;-80
2021/10/18 10:51:51;;;;;;;;;;;;;;;11.99;73.22;100817.48;1611115;88;20225;-81
2021/10/18 10:54:13;;;;;;;;;;;;;;;11.90;73.63;100827.59;1607820;88;20181;-80
2021/10/18 10:56:46;;;;;;;;;;;;;;;11.83;74.00;100833.48;1610121;88;20529;-80
2021/10/18 10:59:26;;;;;;;;;;;;;;;11.80;74.81;100827.16;1611651;89;20160;-80
2021/10/18 11:01:55;;;;;;;;;;;;;;;11.75;74.76;100821.48;1613244;88;20245;-80
2021/10/18 11:04:35;;;;;;;;;;;;;;;11.66;74.76;100843.53;1611336;87;20776;-79
2021/10/18 11:07:03;;;;;;;;;;;;;;;11.60;74.58;100844.11;1612191;89;20194;-79
2021/10/18 11:09:50;;;;;;;;;;;;;;;11.59;73.96;100832.71;1613173;89;22646;-79
2021/10/18 11:12:30;;;;;;;;;;;;;;;11.53;73.56;100825.36;1611410;89;20166;-82
2021/10/18 11:15:01;;;;;;;;;;;;;;;11.58;74.17;100836.83;1615470;87;20165;-82
2021/10/18 11:17:29;;;;;;;;;;;;;;;11.62;74.53;100835.53;1613248;88;20782;-82
2021/10/18 11:20:11;;;;;;;;;;;;;;;11.69;74.69;100832.66;1613320;89;20202;-82
2021/10/18 11:22:43;;;;;;;;;;;;;;;11.68;73.17;100844.21;1613323;89;21132;-82
2021/10/18 11:25:14;;;;;;;;;;;;;;;11.75;72.33;100833.89;1612838;89;20138;-80
2021/10/18 11:27:42;;;;;;;;;;;;;;;11.70;72.20;100842.27;1613245;89;20209;-84
2021/10/18 11:30:11;;;;;;;;;;;;;;;11.73;71.24;100822.14;1613541;89;20796;-83
2021/10/18 11:32:36;;;;;;;;;;;;;;;11.79;71.06;100817.58;1614739;87;20130;-83
2021/10/18 11:35:08;;;;;;;;;;;;;;;11.90;70.53;100822.31;1613216;89;21158;-85
2021/10/18 11:37:54;;;;;;;;;;;;;;;11.95;69.33;100829.36;1612445;88;20486;-87
2021/10/18 11:40:27;;;;;;;;;;;;;;;12.03;68.41;100830.27;1613262;89;20126;-85
2021/10/18 11:42:57;;;;;;;;;;;;;;;12.01;67.66;100822.16;1612401;89;20629;-81
2021/10/18 11:45:27;;;;;;;;;;;;;;;12.17;67.31;100812.22;1613759;87;20211;-81
2021/10/18 11:47:58;;;;;;;;;;;;;;;12.34;66.29;100831.75;1612208;88;21240;-80
2021/10/18 11:50:24;;;;;;;;;;;;;;;12.28;66.09;100821.76;1613205;87;20657;-83
2021/10/18 11:52:55;;;;;;;;;;;;;;;12.34;65.36;100848.46;1613201;89;20162;-84
2021/10/18 11:55:30;;;;;;;;;;;;;;;12.42;65.36;100826.52;1612308;89;20150;-84
2021/10/18 11:58:00;;;;;;;;;;;;;;;12.53;65.39;100830.76;1604263;87;20522;-82
2021/10/18 12:00:30;;;;;;;;;;;;;;;12.62;65.18;100830.34;1597720;89;20158;-81
2021/10/18 12:03:03;;;;;;;;;;;;;;;12.90;64.97;100833.20;1595435;89;20194;-82
2021/10/18 12:05:46;;;;;;;;;;;;;;;13.12;65.09;100828.38;1582204;89;20215;-81
2021/10/18 12:08:14;;;;;;;;;;;;;;;13.19;65.48;100821.48;1596988;89;20186;-82
2021/10/18 12:10:41;;;;;;;;;;;;;;;13.19;62.85;100832.56;1596532;89;20225;-81
2021/10/18 12:13:10;;;;;;;;;;;;;;;13.10;62.47;100827.72;1597373;87;20876;-79
2021/10/18 12:15:56;;;;;;;;;;;;;;;13.06;61.66;100831.66;1581192;87;20186;-81
2021/10/18 12:18:25;;;;;;;;;;;;;;;12.98;62.24;100839.06;1599647;89;20205;-83
2021/10/18 12:20:56;;;;;;;;;;;;;;;12.84;63.09;100838.30;1596841;89;20198;-83
2021/10/18 12:23:29;;;;;;;;;;;;;;;12.74;63.58;100831.77;1595478;88;20288;-81
2021/10/18 12:26:00;;;;;;;;;;;;;;;12.67;62.92;100835.51;1597606;88;21383;-83
2021/10/18 12:28:41;;;;;;;;;;;;;;;12.53;63.64;100823.63;1597029;87;20141;-86
2021/10/18 12:31:09;;;;;;;;;;;;;;;12.55;63.90;100821.69;1601359;89;20133;-85
2021/10/18 12:33:39;;;;;;;;;;;;;;;12.57;64.52;100834.27;1596674;89;20278;-83
2021/10/18 12:36:06;;;;;;;;;;;;;;;12.74;64.43;100839.72;1597407;89;20208;-85
2021/10/18 12:38:35;;;;;;;;;;;;;;;12.75;63.16;100840.05;1595673;89;21106;-84
2021/10/18 12:41:11;;;;;;;;;;;;;;;12.82;62.61;100834.48;1598670;88;20133;-85
2021/10/18 12:43:37;;;;;;;;;;;;;;;12.67;61.71;100832.03;1580757;89;20225;-84
2021/10/18 12:46:24;;;;;;;;;;;;;;;12.64;62.31;100827.05;1600641;88;20181;-83
2021/10/18 12:48:58;;;;;;;;;;;;;;;12.48;62.28;100831.22;1597779;87;20329;-87
2021/10/18 12:51:31;;;;;;;;;;;;;;;12.40;62.38;100836.44;1596388;89;22724;-84
2021/10/18 12:54:00;;;;;;;;;;;;;;;12.33;62.33;100835.38;1582422;89;20210;-82
2021/10/18 12:56:29;;;;;;;;;;;;;;;12.31;62.85;100821.45;1596557;87;20162;-84
2021/10/18 12:59:08;;;;;;;;;;;;;;;12.27;63.36;100835.97;1629953;87;20208;-83
2021/10/18 13:01:33;;;;;;;;;;;;;;;12.13;63.70;100822.25;1625515;87;20170;-84
2021/10/18 13:04:18;;;;;;;;;;;;;;;12.11;63.83;100840.11;1625214;87;21111;-82
2021/10/18 13:06:47;;;;;;;;;;;;;;;12.09;63.72;100844.73;1618777;87;20167;-82
2021/10/18 13:09:14;;;;;;;;;;;;;;;12.04;63.68;100844.33;1619691;87;20169;-82
2021/10/18 13:11:41;;;;;;;;;;;;;;;12.15;63.89;100838.84;1623044;87;20355;-82
2021/10/18 13:14:11;;;;;;;;;;;;;;;12.17;63.66;100855.41;1618272;87;20199;-81
2021/10/18 13:16:40;;;;;;;;;;;;;;;12.38;63.36;100847.66;1618317;87;20528;-86
2021/10/18 13:19:08;;;;;;;;;;;;;;;12.49;63.04;100839.52;1612292;87;20195;-81
2021/10/18 13:21:35;;;;;;;;;;;;;;;12.65;62.53;100833.52;1621510;87;20492;-81
2021/10/18 13:24:06;;;;;;;;;;;;;;;12.78;61.98;100823.84;1618663;87;20204;-82
2021/10/18 13:26:32;;;;;;;;;;;;;;;12.87;62.10;100824.73;1600852;87;20189;-82
2021/10/18 13:29:00;;;;;;;;;;;;;;;12.97;61.27;100826.78;1628197;87;21999;-81
2021/10/18 13:31:27;;;;;;;;;;;;;;;13.13;61.02;100820.78;1624875;87;20234;-83
2021/10/18 13:33:55;;;;;;;;;;;;;;;13.23;60.84;100830.77;1591512;87;20141;-84
2021/10/18 13:36:22;;;;;;;;;;;;;;;13.45;60.61;100832.58;1619860;87;20150;-82
2021/10/18 13:38:53;;;;;;;;;;;;;;;13.51;59.69;100826.64;1620448;87;20193;-81
2021/10/18 13:41:18;;;;;;;;;;;;;;;13.55;59.25;100825.34;1617841;87;20142;-82
2021/10/18 13:43:46;;;;;;;;;;;;;;;13.63;58.49;100839.14;1624941;87;20292;-83
2021/10/18 13:46:14;;;;;;;;;;;;;;;14.08;57.68;100830.51;1618438;87;20186;-83
2021/10/18 13:48:42;;;;;;;;;;;;;;;14.06;56.94;100836.45;1609146;87;20218;-82
2021/10/18 13:51:07;;;;;;;;;;;;;;;14.06;56.96;100839.11;1615849;87;20192;-83
2021/10/18 13:53:33;;;;;;;;;;;;;;;14.05;57.16;100845.44;1626065;87;21042;-82
2021/10/18 13:55:59;;;;;;;;;;;;;;;13.95;57.45;100853.05;1622206;87;20603;-84
2021/10/18 13:58:31;;;;;;;;;;;;;;;13.72;57.97;100853.27;1623330;87;20186;-82